createdAt,value
2022-12-25T00:00:29.680Z,99907.56
2022-12-25T00:01:06.849Z,99911.25
2022-12-25T00:01:41.533Z,99913.13
2022-12-25T00:02:13.790Z,99914.16
2022-12-25T00:02:48.945Z,99910.44
2022-12-25T00:03:23.793Z,99915.78
2022-12-25T00:03:57.312Z,99914.16
2022-12-25T00:04:29.479Z,99917.88
2022-12-25T00:05:04.292Z,99909.84
2022-12-25T00:05:38.461Z,99910.13
2022-12-25T00:06:10.615Z,99913.59
2022-12-25T00:06:45.333Z,99921.81
2022-12-25T00:07:17.497Z,99914.84
2022-12-25T00:07:49.622Z,99916.72
2022-12-25T00:08:21.704Z,99915.91
2022-12-25T00:08:56.455Z,99918.00
2022-12-25T00:09:29.111Z,99912.66
2022-12-25T00:10:01.233Z,99920.69
2022-12-25T00:10:33.418Z,99924.16
2022-12-25T00:11:11.143Z,99921.50
2022-12-25T00:11:43.688Z,99919.63
2022-12-25T00:12:15.987Z,99923.13
2022-12-25T00:12:50.647Z,99920.44
2022-12-25T00:13:22.836Z,99921.22
2022-12-25T00:13:55.054Z,99920.44
2022-12-25T00:14:29.709Z,99927.16
2022-12-25T00:15:01.815Z,99927.16
2022-12-25T00:15:33.946Z,99923.69
2022-12-25T00:16:07.238Z,99927.38
2022-12-25T00:16:42.180Z,99930.06
2022-12-25T00:17:14.288Z,99938.06
2022-12-25T00:17:48.958Z,99932.97
2022-12-25T00:18:23.706Z,99928.91
2022-12-25T00:18:56.883Z,99934.25
2022-12-25T00:19:29.087Z,99929.38
2022-12-25T00:20:01.212Z,99937.59
2022-12-25T00:20:35.972Z,99932.53
2022-12-25T00:21:08.478Z,99936.22
2022-12-25T00:21:40.542Z,99933.78
2022-12-25T00:22:15.195Z,99934.59
2022-12-25T00:22:47.483Z,99934.03
2022-12-25T00:23:19.613Z,99934.03
2022-12-25T00:23:57.305Z,99935.88
2022-12-25T00:24:29.372Z,99928.09
2022-12-25T00:25:01.453Z,99933.66
2022-12-25T00:25:36.237Z,99938.19
2022-12-25T00:26:11.363Z,99942.97
2022-12-25T00:26:43.518Z,99942.38
2022-12-25T00:27:19.741Z,99934.63
2022-12-25T00:27:52.065Z,99934.03
2022-12-25T00:28:24.820Z,99934.03
2022-12-25T00:29:00.673Z,99935.06
2022-12-25T00:29:32.944Z,99936.91
2022-12-25T00:30:07.091Z,99939.34
2022-12-25T00:30:41.286Z,99935.88
2022-12-25T00:31:18.037Z,99940.16
2022-12-25T00:31:50.327Z,99936.69
2022-12-25T00:32:22.452Z,99938.53
2022-12-25T00:32:57.185Z,99933.19
2022-12-25T00:33:31.846Z,99937.97
2022-12-25T00:34:04.045Z,99939.81
2022-12-25T00:34:36.150Z,99937.97
2022-12-25T00:35:11.757Z,99933.69
2022-12-25T00:35:44.217Z,99938.41
2022-12-25T00:36:19.588Z,99943.75
2022-12-25T00:36:54.453Z,99939.50
2022-12-25T00:37:26.646Z,99940.75
2022-12-25T00:37:58.942Z,99938.06
2022-12-25T00:38:33.625Z,99946.91
2022-12-25T00:39:07.123Z,99946.09
2022-12-25T00:39:40.216Z,99946.34
2022-12-25T00:40:13.209Z,99939.94
2022-12-25T00:40:47.975Z,99950.03
2022-12-25T00:41:42.160Z,99942.03
2022-12-25T00:42:19.965Z,99945.59
2022-12-25T00:42:54.662Z,99930.66
2022-12-25T00:43:26.757Z,99942.94
2022-12-25T00:43:58.868Z,99942.94
2022-12-25T00:44:33.572Z,99943.75
2022-12-25T00:45:06.599Z,99939.47
2022-12-25T00:45:38.737Z,99939.25
2022-12-25T00:46:15.883Z,99934.94
2022-12-25T00:46:48.012Z,99934.13
2022-12-25T00:47:20.262Z,99942.94
2022-12-25T00:47:55.038Z,99939.47
2022-12-25T00:48:30.780Z,99936.78
2022-12-25T00:49:03.355Z,99937.25
2022-12-25T00:49:38.104Z,99946.66
2022-12-25T00:50:11.048Z,99941.31
2022-12-25T00:50:43.403Z,99934.38
2022-12-25T00:51:18.132Z,99942.13
2022-12-25T00:51:50.398Z,99942.38
2022-12-25T00:52:22.520Z,99938.66
2022-12-25T00:52:57.233Z,99943.16
2022-12-25T00:53:30.126Z,99942.38
2022-12-25T00:54:02.395Z,99939.72
2022-12-25T00:54:37.404Z,99938.09
2022-12-25T00:55:09.876Z,99942.38
2022-12-25T00:55:41.928Z,99940.50
2022-12-25T00:56:16.574Z,99942.94
2022-12-25T00:56:48.887Z,99940.28
2022-12-25T00:57:20.994Z,99940.28
2022-12-25T00:57:55.629Z,99944.78
2022-12-25T00:58:30.490Z,99942.13
2022-12-25T00:59:02.556Z,99942.94
2022-12-25T00:59:37.650Z,99927.97
2022-12-25T01:00:11.272Z,99939.72
2022-12-25T01:00:43.393Z,99934.13
2022-12-25T01:01:15.618Z,99939.47
2022-12-25T01:01:50.676Z,99934.94
2022-12-25T01:02:25.970Z,99929.84
2022-12-25T01:02:58.390Z,99935.97
2022-12-25T01:03:35.730Z,99927.75
2022-12-25T01:04:08.894Z,99931.25
2022-12-25T01:04:40.969Z,99927.53
2022-12-25T01:05:15.626Z,99930.41
2022-12-25T01:05:56.492Z,99941.09
2022-12-25T01:06:28.967Z,99943.75
2022-12-25T01:07:01.142Z,99934.72
2022-12-25T01:07:36.150Z,99936.34
2022-12-25T01:08:08.459Z,99937.94
2022-12-25T01:09:02.563Z,99937.72
2022-12-25T01:10:01.744Z,99942.47
2022-12-25T01:10:34.014Z,99944.56
2022-12-25T01:11:08.403Z,99944.09
2022-12-25T01:11:40.627Z,99949.22
2022-12-25T01:12:15.338Z,99942.03
2022-12-25T01:12:47.403Z,99957.78
2022-12-25T01:13:19.460Z,99946.09
2022-12-25T01:13:54.168Z,99954.09
2022-12-25T01:14:26.296Z,99959.41
2022-12-25T01:14:58.515Z,99953.88
2022-12-25T01:15:33.183Z,99958.38
2022-12-25T01:16:06.294Z,99960.22
2022-12-25T01:16:38.668Z,99950.38
2022-12-25T01:17:10.824Z,99954.91
2022-12-25T01:17:46.106Z,99954.09
2022-12-25T01:18:18.424Z,99957.00
2022-12-25T01:18:53.213Z,99957.78
2022-12-25T01:19:25.306Z,99950.03
2022-12-25T01:19:59.983Z,99959.66
2022-12-25T01:20:32.186Z,99961.28
2022-12-25T01:21:06.579Z,99957.56
2022-12-25T01:21:41.701Z,99958.38
2022-12-25T01:22:13.883Z,99961.06
2022-12-25T01:22:46.327Z,99962.69
2022-12-25T01:23:21.139Z,99959.75
2022-12-25T01:23:53.955Z,99957.91
2022-12-25T01:24:26.113Z,99964.28
2022-12-25T01:25:00.764Z,99958.72
2022-12-25T01:25:33.508Z,99966.72
2022-12-25T01:26:06.441Z,99959.53
2022-12-25T01:26:41.096Z,99956.66
2022-12-25T01:27:13.209Z,99954.81
2022-12-25T01:27:45.297Z,99958.25
2022-12-25T01:28:19.949Z,99958.03
2022-12-25T01:28:53.259Z,99954.31
2022-12-25T01:29:25.414Z,99958.84
2022-12-25T01:30:00.044Z,99961.28
2022-12-25T01:30:32.422Z,99957.81
2022-12-25T01:31:05.665Z,99960.22
2022-12-25T01:31:40.384Z,99961.28
2022-12-25T01:32:13.008Z,99958.84
2022-12-25T01:32:45.170Z,99957.00
2022-12-25T01:33:19.817Z,99958.03
2022-12-25T01:33:54.563Z,99958.03
2022-12-25T01:34:26.623Z,99959.06
2022-12-25T01:35:01.383Z,99956.19
2022-12-25T01:35:33.458Z,99958.84
2022-12-25T01:36:12.861Z,99950.63
2022-12-25T01:36:47.543Z,99960.47
2022-12-25T01:37:19.604Z,99964.78
2022-12-25T01:37:55.495Z,99957.56
2022-12-25T01:38:27.615Z,99966.38
2022-12-25T01:39:00.265Z,99965.34
2022-12-25T01:39:32.451Z,99959.19
2022-12-25T01:40:08.433Z,99965.13
2022-12-25T01:40:40.692Z,99969.88
2022-12-25T01:41:14.667Z,99971.72
2022-12-25T01:41:49.402Z,99961.03
2022-12-25T01:42:23.913Z,99966.38
2022-12-25T01:42:58.580Z,99976.84
2022-12-25T01:43:33.344Z,99968.00
2022-12-25T01:44:08.152Z,99968.00
2022-12-25T01:45:25.447Z,99964.53
2022-12-25T01:45:58.337Z,99972.19
2022-12-25T01:46:31.533Z,99971.97
2022-12-25T01:47:07.399Z,99974.84
2022-12-25T01:47:39.688Z,99971.16
2022-12-25T01:48:14.897Z,99978.13
2022-12-25T01:48:49.647Z,99971.97
2022-12-25T01:49:25.969Z,99978.91
2022-12-25T01:49:58.528Z,99972.78
2022-12-25T01:50:31.039Z,99963.72
2022-12-25T01:51:09.377Z,99980.53
2022-12-25T01:51:44.732Z,99972.78
2022-12-25T01:52:24.067Z,99974.63
2022-12-25T01:53:00.119Z,99966.84
2022-12-25T01:53:32.346Z,99968.69
2022-12-25T01:54:09.360Z,99970.81
2022-12-25T01:54:46.370Z,99970.00
2022-12-25T01:55:18.799Z,99965.69
2022-12-25T01:55:56.792Z,99971.03
2022-12-25T01:56:32.659Z,99965.09
2022-12-25T01:57:09.604Z,99969.63
2022-12-25T01:57:43.927Z,99966.38
2022-12-25T01:58:19.869Z,99970.91
2022-12-25T01:58:52.584Z,99970.09
2022-12-25T01:59:26.289Z,99965.56
2022-12-25T02:00:00.790Z,99962.34
2022-12-25T02:00:35.730Z,99972.19
2022-12-25T02:01:08.685Z,99966.25
2022-12-25T02:01:40.904Z,99963.59
2022-12-25T02:02:13.378Z,99964.63
2022-12-25T02:02:48.273Z,99967.28
2022-12-25T02:03:21.602Z,99964.06
2022-12-25T02:04:01.643Z,99967.75
2022-12-25T02:04:45.749Z,99967.16
2022-12-25T02:05:24.074Z,99970.09
2022-12-25T02:05:59.620Z,99964.97
2022-12-25T02:06:31.931Z,99965.78
2022-12-25T02:07:04.089Z,99971.94
2022-12-25T02:07:41.336Z,99965.78
2022-12-25T02:08:19.814Z,99963.13
2022-12-25T02:08:52.232Z,99963.94
2022-12-25T02:09:24.339Z,99963.72
2022-12-25T02:09:56.416Z,99971.47
2022-12-25T02:10:31.114Z,99959.75
2022-12-25T02:11:03.195Z,99963.25
2022-12-25T02:11:50.989Z,99969.16
2022-12-25T02:12:25.217Z,99964.06
2022-12-25T02:13:00.052Z,99972.88
2022-12-25T02:13:32.323Z,99975.53
2022-12-25T02:14:04.454Z,99973.69
2022-12-25T02:14:37.858Z,99969.97
2022-12-25T02:15:16.183Z,99972.63
2022-12-25T02:15:58.589Z,99971.81
2022-12-25T02:16:35.479Z,99963.81
2022-12-25T02:17:37.085Z,99967.75
2022-12-25T02:18:16.078Z,99968.59
2022-12-25T02:18:54.923Z,99975.53
2022-12-25T02:19:50.270Z,99972.06
2022-12-25T02:21:03.471Z,99973.56
2022-12-25T02:21:56.803Z,99979.13
2022-12-25T02:22:39.655Z,99977.50
2022-12-25T02:23:48.139Z,99986.31
2022-12-25T02:24:52.498Z,99976.91
2022-12-25T02:25:45.298Z,99979.81
2022-12-25T02:26:32.178Z,99978.19
2022-12-25T02:27:14.079Z,99984.31
2022-12-25T02:28:16.442Z,99987.00
2022-12-25T02:28:56.884Z,99987.00
2022-12-25T02:29:31.731Z,99981.31
2022-12-25T02:30:08.667Z,99987.22
2022-12-25T02:30:44.631Z,99986.78
2022-12-25T02:31:27.653Z,99991.06
2022-12-25T02:32:10.632Z,99983.84
2022-12-25T02:32:49.112Z,99982.25
2022-12-25T02:33:43.828Z,99986.53
2022-12-25T02:34:20.933Z,99983.28
2022-12-25T02:35:03.406Z,99985.75
2022-12-25T02:35:36.451Z,99987.59
2022-12-25T02:36:15.620Z,99990.00
2022-12-25T02:36:55.789Z,99983.63
2022-12-25T02:37:33.980Z,99985.50
2022-12-25T02:38:10.397Z,99987.13
2022-12-25T02:39:06.253Z,99991.41
2022-12-25T02:39:58.177Z,99984.69
2022-12-25T02:40:37.884Z,99992.09
2022-12-25T02:41:16.257Z,99987.59
2022-12-25T02:41:54.085Z,99991.84
2022-12-25T02:42:51.230Z,99996.97
2022-12-25T02:43:46.377Z,99996.63
2022-12-25T02:44:37.080Z,99999.50
2022-12-25T02:45:30.469Z,99991.75
2022-12-25T02:46:21.440Z,99998.13
2022-12-25T02:47:09.717Z,100001.00
2022-12-25T02:47:59.563Z,100003.13
2022-12-25T02:48:50.632Z,99996.97
2022-12-25T02:49:40.384Z,99999.03
2022-12-25T02:50:30.210Z,99997.41
2022-12-25T02:51:20.056Z,100000.06
2022-12-25T02:52:11.544Z,100004.63
2022-12-25T02:53:01.018Z,100001.94
2022-12-25T02:53:50.032Z,100002.50
2022-12-25T02:54:42.394Z,100000.88
2022-12-25T02:55:33.725Z,100005.19
2022-12-25T02:56:21.507Z,100010.28
2022-12-25T02:57:11.846Z,100003.13
2022-12-25T02:58:18.350Z,100007.63
2022-12-25T02:59:08.348Z,100006.22
2022-12-25T03:00:00.135Z,100007.03
2022-12-25T03:00:52.397Z,100007.03
2022-12-25T03:01:43.949Z,100017.69
2022-12-25T03:02:33.594Z,100019.31
2022-12-25T03:03:25.300Z,100020.34
2022-12-25T03:04:17.163Z,100010.72
2022-12-25T03:05:06.696Z,100018.72
2022-12-25T03:05:56.605Z,100016.53
2022-12-25T03:06:47.188Z,100020.00
2022-12-25T03:07:23.241Z,100030.06
2022-12-25T03:07:57.775Z,100020.22
2022-12-25T03:08:37.448Z,100021.84
2022-12-25T03:09:36.170Z,100020.81
2022-12-25T03:10:26.627Z,100027.66
2022-12-25T03:11:18.721Z,100020.91
2022-12-25T03:11:57.128Z,100029.72
2022-12-25T03:12:39.063Z,100022.31
2022-12-25T03:13:18.406Z,100021.72
2022-12-25T03:13:56.232Z,100027.06
2022-12-25T03:14:44.375Z,100031.34
2022-12-25T03:15:33.107Z,100021.97
2022-12-25T03:16:21.685Z,100029.16
2022-12-25T03:16:56.925Z,100039.81
2022-12-25T03:17:30.793Z,100035.31
2022-12-25T03:18:09.496Z,100029.97
2022-12-25T03:18:42.222Z,100032.84
2022-12-25T03:19:29.152Z,100029.16
2022-12-25T03:20:16.506Z,100043.72
2022-12-25T03:21:12.884Z,100037.00
2022-12-25T03:22:00.010Z,100039.88
2022-12-25T03:22:48.073Z,100031.31
2022-12-25T03:23:40.483Z,100045.91
2022-12-25T03:24:27.714Z,100048.00
2022-12-25T03:25:20.841Z,100041.25
2022-12-25T03:26:24.465Z,100038.81
2022-12-25T03:27:00.239Z,100036.38
2022-12-25T03:27:34.976Z,100039.41
2022-12-25T03:28:07.509Z,100043.22
2022-12-25T03:28:42.224Z,100041.16
2022-12-25T03:29:32.038Z,100047.88
2022-12-25T03:30:20.432Z,100039.88
2022-12-25T03:31:13.188Z,100039.06
2022-12-25T03:31:54.079Z,100038.03
2022-12-25T03:32:38.002Z,100044.75
2022-12-25T03:33:43.832Z,100036.75
2022-12-25T03:34:46.478Z,100041.75
2022-12-25T03:35:25.889Z,100041.75
2022-12-25T03:36:03.992Z,100040.34
2022-12-25T03:36:44.909Z,100033.75
2022-12-25T03:37:41.624Z,100046.84
2022-12-25T03:38:38.642Z,100036.88
2022-12-25T03:39:45.881Z,100043.69
2022-12-25T03:40:41.799Z,100048.41
2022-12-25T03:41:37.669Z,100049.69
2022-12-25T03:42:29.135Z,100051.75
2022-12-25T03:43:25.483Z,100053.59
2022-12-25T03:44:22.828Z,100050.16
2022-12-25T03:45:20.908Z,100051.75
2022-12-25T03:46:15.246Z,100056.88
2022-12-25T03:47:13.446Z,100050.88
2022-12-25T03:48:03.848Z,100053.06
2022-12-25T03:48:55.471Z,100056.56
2022-12-25T03:49:48.766Z,100052.03
2022-12-25T03:50:40.885Z,100054.72
2022-12-25T03:51:31.948Z,100044.88
2022-12-25T03:52:21.532Z,100049.38
2022-12-25T03:53:11.659Z,100047.53
2022-12-25T03:54:03.571Z,100052.25
2022-12-25T03:54:53.645Z,100053.31
2022-12-25T03:55:41.873Z,100052.72
2022-12-25T03:56:32.240Z,100050.66
2022-12-25T03:57:19.571Z,100053.75
2022-12-25T03:58:06.728Z,100059.47
2022-12-25T03:58:53.837Z,100058.66
2022-12-25T03:59:41.009Z,100062.13
2022-12-25T04:00:31.922Z,100057.59
2022-12-25T04:01:19.635Z,100063.75
2022-12-25T04:02:07.006Z,100056.00
2022-12-25T04:02:54.283Z,100069.31
2022-12-25T04:03:41.580Z,100063.97
2022-12-25T04:04:28.728Z,100065.00
2022-12-25T04:05:24.321Z,100064.81
2022-12-25T04:06:11.504Z,100067.69
2022-12-25T04:06:58.839Z,100069.88
2022-12-25T04:07:46.019Z,100068.03
2022-12-25T04:08:33.138Z,100067.22
2022-12-25T04:09:20.260Z,100070.91
2022-12-25T04:10:07.377Z,100067.47
2022-12-25T04:10:54.512Z,100074.66
2022-12-25T04:11:41.636Z,100071.97
2022-12-25T04:12:28.794Z,100066.66
2022-12-25T04:13:15.957Z,100074.66
2022-12-25T04:14:03.066Z,100075.69
2022-12-25T04:14:50.205Z,100069.31
2022-12-25T04:15:40.004Z,100072.19
2022-12-25T04:16:27.273Z,100070.81
2022-12-25T04:17:14.400Z,100071.03
2022-12-25T04:18:01.530Z,100079.22
2022-12-25T04:18:48.714Z,100071.22
2022-12-25T04:19:35.820Z,100074.94
2022-12-25T04:20:24.358Z,100074.94
2022-12-25T04:21:11.601Z,100074.72
2022-12-25T04:21:58.741Z,100071.22
2022-12-25T04:22:45.858Z,100074.72
2022-12-25T04:23:32.994Z,100072.88
2022-12-25T04:24:21.397Z,100074.94
2022-12-25T04:25:08.515Z,100077.59
2022-12-25T04:25:55.659Z,100074.94
2022-12-25T04:26:42.954Z,100076.00
2022-12-25T04:27:30.066Z,100076.81
2022-12-25T04:28:17.590Z,100076.81
2022-12-25T04:29:10.810Z,100080.25
2022-12-25T04:29:58.086Z,100084.56
2022-12-25T04:30:47.821Z,100081.91
2022-12-25T04:31:35.167Z,100077.38
2022-12-25T04:32:22.340Z,100084.13
2022-12-25T04:33:12.688Z,100077.16
2022-12-25T04:34:00.471Z,100092.34
2022-12-25T04:34:47.614Z,100091.53
2022-12-25T04:35:34.857Z,100082.94
2022-12-25T04:36:13.611Z,100090.91
2022-12-25T04:36:45.746Z,100090.91
2022-12-25T04:37:17.931Z,100095.22
2022-12-25T04:37:55.071Z,100095.81
2022-12-25T04:38:27.144Z,100092.13
2022-12-25T04:38:59.251Z,100090.84
2022-12-25T04:39:33.914Z,100095.97
2022-12-25T04:40:09.326Z,100098.63
2022-12-25T04:40:41.630Z,100091.47
2022-12-25T04:41:16.825Z,100090.41
2022-12-25T04:41:48.907Z,100098.38
2022-12-25T04:42:20.996Z,100087.72
2022-12-25T04:42:53.469Z,100094.47
2022-12-25T04:43:28.263Z,100100.63
2022-12-25T04:44:00.350Z,100099.56
2022-12-25T04:44:32.506Z,100099.56
2022-12-25T04:45:07.832Z,100097.72
2022-12-25T04:45:42.603Z,100102.22
2022-12-25T04:46:17.321Z,100095.06
2022-12-25T04:46:49.502Z,100100.16
2022-12-25T04:47:21.633Z,100106.06
2022-12-25T04:47:53.691Z,100097.03
2022-12-25T04:48:29.426Z,100102.72
2022-12-25T04:49:01.545Z,100098.22
2022-12-25T04:49:33.696Z,100103.34
2022-12-25T04:50:09.768Z,100104.97
2022-12-25T04:50:41.799Z,100106.59
2022-12-25T04:51:16.483Z,100111.94
2022-12-25T04:51:51.208Z,100113.53
2022-12-25T04:52:23.327Z,100116.66
2022-12-25T04:52:55.414Z,100118.31
2022-12-25T04:53:30.083Z,100117.69
2022-12-25T04:54:02.287Z,100111.56
2022-12-25T04:54:34.409Z,100115.03
2022-12-25T04:55:10.412Z,100111.56
2022-12-25T04:55:42.762Z,100120.81
2022-12-25T04:56:16.053Z,100115.69
2022-12-25T04:56:50.827Z,100121.03
2022-12-25T04:57:22.911Z,100118.38
2022-12-25T04:57:55.022Z,100118.38
2022-12-25T04:58:27.150Z,100121.84
2022-12-25T04:59:01.817Z,100118.38
2022-12-25T04:59:33.932Z,100118.38
2022-12-25T05:00:07.804Z,100117.56
2022-12-25T05:00:42.470Z,100112.22
2022-12-25T05:01:17.747Z,100117.56
2022-12-25T05:01:49.982Z,100110.63
2022-12-25T05:02:22.356Z,100117.81
2022-12-25T05:02:57.269Z,100110.63
2022-12-25T05:03:30.187Z,100116.75
2022-12-25T05:04:02.314Z,100115.69
2022-12-25T05:04:34.455Z,100119.19
2022-12-25T05:05:09.690Z,100113.66
2022-12-25T05:05:41.851Z,100118.97
2022-12-25T05:06:13.981Z,100117.94
2022-12-25T05:06:48.937Z,100120.38
2022-12-25T05:07:21.129Z,100118.50
2022-12-25T05:07:53.325Z,100125.69
2022-12-25T05:08:25.454Z,100119.53
2022-12-25T05:09:00.596Z,100123.03
2022-12-25T05:09:32.679Z,100116.06
2022-12-25T05:10:05.444Z,100118.50
2022-12-25T05:10:42.520Z,100119.94
2022-12-25T05:11:16.083Z,100123.63
2022-12-25T05:11:48.166Z,100118.31
2022-12-25T05:12:22.827Z,100113.78
2022-12-25T05:12:54.900Z,100124.44
2022-12-25T05:13:27.028Z,100121.78
2022-12-25T05:14:01.711Z,100122.00
2022-12-25T05:14:33.972Z,100128.97
2022-12-25T05:15:06.878Z,100125.28
2022-12-25T05:15:45.360Z,100129.53
2022-12-25T05:16:20.050Z,100132.44
2022-12-25T05:16:52.242Z,100137.78
2022-12-25T05:17:26.922Z,100136.16
2022-12-25T05:17:59.040Z,100128.38
2022-12-25T05:18:31.116Z,100136.38
2022-12-25T05:19:05.969Z,100132.06
2022-12-25T05:19:38.122Z,100137.63
2022-12-25T05:20:14.970Z,100136.22
2022-12-25T05:20:55.491Z,100139.13
2022-12-25T05:21:27.626Z,100134.00
2022-12-25T05:21:59.706Z,100132.97
2022-12-25T05:22:31.878Z,100139.94
2022-12-25T05:23:06.598Z,100133.78
2022-12-25T05:23:38.904Z,100134.81
2022-12-25T05:24:11.043Z,100133.19
2022-12-25T05:24:48.085Z,100137.13
2022-12-25T05:25:20.189Z,100128.53
2022-12-25T05:25:52.421Z,100132.00
2022-12-25T05:26:28.809Z,100137.94
2022-12-25T05:27:00.935Z,100137.13
2022-12-25T05:27:33.144Z,100132.00
2022-12-25T05:28:05.485Z,100139.78
2022-12-25T05:28:40.152Z,100137.94
2022-12-25T05:29:12.371Z,100135.28
2022-12-25T05:29:44.475Z,100136.88
2022-12-25T05:30:19.307Z,100140.16
2022-12-25T05:30:56.619Z,100137.28
2022-12-25T05:31:28.813Z,100142.59
2022-12-25T05:32:03.748Z,100137.28
2022-12-25T05:32:35.865Z,100147.94
2022-12-25T05:33:07.986Z,100148.72
2022-12-25T05:33:42.633Z,100146.88
2022-12-25T05:34:14.693Z,100149.53
2022-12-25T05:34:47.109Z,100152.22
2022-12-25T05:35:19.240Z,100150.38
2022-12-25T05:35:53.913Z,100147.94
2022-12-25T05:36:26.148Z,100147.34
2022-12-25T05:36:58.253Z,100146.53
2022-12-25T05:37:35.974Z,100150.00
2022-12-25T05:38:08.521Z,100152.88
2022-12-25T05:38:40.718Z,100155.34
2022-12-25T05:39:15.395Z,100153.69
2022-12-25T05:39:47.541Z,100152.88
2022-12-25T05:40:19.609Z,100158.22
2022-12-25T05:40:56.799Z,100152.88
2022-12-25T05:41:33.977Z,100157.19
2022-12-25T05:42:06.691Z,100158.22
2022-12-25T05:42:41.329Z,100154.50
2022-12-25T05:43:13.505Z,100158.00
2022-12-25T05:43:47.508Z,100158.00
2022-12-25T05:44:22.160Z,100160.66
2022-12-25T05:44:54.504Z,100159.03
2022-12-25T05:45:26.823Z,100160.66
2022-12-25T05:46:04.885Z,100159.63
2022-12-25T05:46:41.584Z,100156.16
2022-12-25T05:47:13.693Z,100160.66
2022-12-25T05:47:45.828Z,100167.63
2022-12-25T05:48:18.171Z,100168.44
2022-12-25T05:48:52.823Z,100163.94
2022-12-25T05:49:25.027Z,100162.06
2022-12-25T05:49:57.119Z,100160.22
2022-12-25T05:50:31.856Z,100165.53
2022-12-25T05:51:11.227Z,100161.47
2022-12-25T05:51:43.708Z,100166.59
2022-12-25T05:52:18.370Z,100171.13
2022-12-25T05:52:50.491Z,100164.16
2022-12-25T05:53:22.580Z,100176.66
2022-12-25T05:53:57.240Z,100168.66
2022-12-25T05:54:29.366Z,100164.38
2022-12-25T05:55:01.621Z,100175.84
2022-12-25T05:55:34.339Z,100172.59
2022-12-25T05:56:11.306Z,100172.59
2022-12-25T05:56:43.404Z,100167.69
2022-12-25T05:57:15.486Z,100168.75
2022-12-25T05:57:50.254Z,100173.03
2022-12-25T05:58:22.353Z,100171.41
2022-12-25T05:58:54.455Z,100178.34
2022-12-25T05:59:31.899Z,100182.66
2022-12-25T06:00:04.987Z,100180.19
2022-12-25T06:00:44.692Z,100182.28
2022-12-25T06:01:24.197Z,100176.16
2022-12-25T06:01:56.598Z,100177.41
2022-12-25T06:02:28.895Z,100180.09
2022-12-25T06:03:03.931Z,100183.78
2022-12-25T06:03:36.146Z,100172.50
2022-12-25T06:04:12.952Z,100175.19
2022-12-25T06:04:45.303Z,100178.88
2022-12-25T06:05:17.387Z,100171.47
2022-12-25T06:05:52.220Z,100176.81
2022-12-25T06:06:24.300Z,100170.44
2022-12-25T06:06:56.418Z,100180.88
2022-12-25T06:07:31.090Z,100184.59
2022-12-25T06:08:03.445Z,100181.94
2022-12-25T06:08:35.643Z,100180.09
2022-12-25T06:09:10.334Z,100191.53
2022-12-25T06:09:42.414Z,100193.41
2022-12-25T06:10:14.525Z,100187.03
2022-12-25T06:10:49.793Z,100180.66
2022-12-25T06:11:21.948Z,100181.47
2022-12-25T06:11:54.043Z,100194.81
2022-12-25T06:12:26.166Z,100193.78
2022-12-25T06:13:00.932Z,100195.63
2022-12-25T06:13:33.801Z,100189.47
2022-12-25T06:14:06.107Z,100198.28
2022-12-25T06:14:38.381Z,100192.97
2022-12-25T06:15:13.480Z,100191.09
2022-12-25T06:15:45.538Z,100190.28
2022-12-25T06:16:21.022Z,100194.59
2022-12-25T06:16:53.631Z,100202.59
2022-12-25T06:17:29.024Z,100196.19
2022-12-25T06:18:01.630Z,100196.19
2022-12-25T06:18:35.722Z,100198.88
2022-12-25T06:19:10.450Z,100195.41
2022-12-25T06:19:42.797Z,100199.94
2022-12-25T06:20:14.969Z,100200.94
2022-12-25T06:20:49.705Z,100196.06
2022-12-25T06:21:21.864Z,100202.44
2022-12-25T06:21:54.625Z,100202.44
2022-12-25T06:22:31.589Z,100203.47
2022-12-25T06:23:03.793Z,100202.66
2022-12-25T06:23:36.117Z,100205.31
2022-12-25T06:24:13.450Z,100195.69
2022-12-25T06:24:49.753Z,100210.06
2022-12-25T06:25:23.018Z,100200.63
2022-12-25T06:25:57.646Z,100211.66
2022-12-25T06:26:31.229Z,100210.84
2022-12-25T06:27:03.587Z,100213.50
2022-12-25T06:27:38.308Z,100215.16
2022-12-25T06:28:10.371Z,100215.97
2022-12-25T06:28:43.017Z,100212.50
2022-12-25T06:29:15.455Z,100213.31
2022-12-25T06:29:50.135Z,100218.63
2022-12-25T06:30:22.298Z,100210.84
2022-12-25T06:30:54.395Z,100214.34
2022-12-25T06:31:31.893Z,100217.00
2022-12-25T06:32:04.638Z,100219.66
2022-12-25T06:32:37.298Z,100218.06
2022-12-25T06:33:12.000Z,100212.50
2022-12-25T06:33:44.595Z,100214.13
2022-12-25T06:34:16.946Z,100219.44
2022-12-25T06:34:49.036Z,100221.91
2022-12-25T06:35:23.709Z,100220.06
2022-12-25T06:35:55.773Z,100213.91
2022-12-25T06:36:29.577Z,100222.72
2022-12-25T06:37:04.361Z,100221.09
2022-12-25T06:37:36.475Z,100230.13
2022-12-25T06:38:08.600Z,100218.84
2022-12-25T06:38:43.483Z,100220.72
2022-12-25T06:39:15.596Z,100218.06
2022-12-25T06:39:47.892Z,100219.66
2022-12-25T06:40:22.879Z,100221.31
2022-12-25T06:40:57.734Z,100227.66
2022-12-25T06:41:30.577Z,100217.81
2022-12-25T06:42:05.366Z,100220.47
2022-12-25T06:42:37.455Z,100220.47
2022-12-25T06:43:09.631Z,100222.31
2022-12-25T06:43:44.370Z,100219.66
2022-12-25T06:44:16.492Z,100223.97
2022-12-25T06:44:48.695Z,100229.28
2022-12-25T06:45:23.555Z,100223.97
2022-12-25T06:45:55.758Z,100230.13
2022-12-25T06:46:31.036Z,100230.13
2022-12-25T06:47:05.707Z,100230.13
2022-12-25T06:47:38.342Z,100233.59
2022-12-25T06:48:10.433Z,100228.47
2022-12-25T06:48:49.751Z,100229.28
2022-12-25T06:49:22.495Z,100230.56
2022-12-25T06:49:54.609Z,100231.97
2022-12-25T06:50:29.244Z,100234.63
2022-12-25T06:51:03.069Z,100233.81
2022-12-25T06:51:35.203Z,100230.31
2022-12-25T06:52:09.856Z,100218.72
2022-12-25T06:52:41.982Z,100226.06
2022-12-25T06:53:14.046Z,100230.56
2022-12-25T06:53:49.020Z,100233.22
2022-12-25T06:54:21.194Z,100232.16
2022-12-25T06:54:53.281Z,100235.44
2022-12-25T06:55:27.954Z,100234.63
2022-12-25T06:56:03.515Z,100239.13
2022-12-25T06:56:35.820Z,100234.06
2022-12-25T06:57:10.506Z,100231.59
2022-12-25T06:57:42.656Z,100237.38
2022-12-25T06:58:14.728Z,100237.38
2022-12-25T06:58:50.887Z,100238.97
2022-12-25T06:59:23.025Z,100245.38
2022-12-25T06:59:55.730Z,100238.16
2022-12-25T07:00:30.502Z,100246.59
2022-12-25T07:01:15.307Z,100255.56
2022-12-25T07:01:55.276Z,100252.91
2022-12-25T07:02:27.809Z,100254.75
2022-12-25T07:03:00.113Z,100250.03
2022-12-25T07:03:33.562Z,100249.78
2022-12-25T07:04:14.230Z,100256.78
2022-12-25T07:04:46.751Z,100257.22
2022-12-25T07:05:18.939Z,100258.03
2022-12-25T07:05:53.594Z,100258.81
2022-12-25T07:06:26.200Z,100260.47
2022-12-25T07:07:01.820Z,100259.22
2022-12-25T07:07:39.179Z,100262.91
2022-12-25T07:08:11.223Z,100255.94
2022-12-25T07:08:43.341Z,100263.94
2022-12-25T07:09:18.169Z,100259.44
2022-12-25T07:09:50.338Z,100261.28
2022-12-25T07:10:22.553Z,100262.91
2022-12-25T07:10:58.109Z,100270.69
2022-12-25T07:11:31.306Z,100269.66
2022-12-25T07:12:04.833Z,100273.94
2022-12-25T07:12:39.789Z,100269.66
2022-12-25T07:13:11.853Z,100269.88
2022-12-25T07:13:44.422Z,100267.63